Time;durP1;ratioP1;P1;durP2;ratioP2;P2;SDS_P1;SDS_P2;PMS_P1;PMS_P2;Temp;Humidity;BMP_temperature;BMP_pressure;BME280_temperature;BME280_humidity;BME280_pressure;Samples;Min_cycle;Max_cycle;Signal;HPM_P1;HPM_P2
2021/08/31 00:02:05;;;;;;;4.07;3.40;;;;;;;;;;5011519;28;20524;-74
2021/08/31 00:04:31;;;;;;;6.33;4.80;;;;;;;;;;4994321;28;20459;-75
2021/08/31 00:06:57;;;;;;;6.37;4.37;;;;;;;;;;4995786;28;20612;-74
2021/08/31 00:09:24;;;;;;;4.13;3.70;;;;;;;;;;5014255;28;20876;-74
2021/08/31 00:11:50;;;;;;;5.87;4.50;;;;;;;;;;5012918;28;20404;-73
2021/08/31 00:14:17;;;;;;;9.33;5.17;;;;;;;;;;5013212;28;20450;-74
2021/08/31 00:16:43;;;;;;;6.33;4.73;;;;;;;;;;5014166;28;20411;-75
2021/08/31 00:19:09;;;;;;;6.27;4.20;;;;;;;;;;5012772;28;20439;-74
2021/08/31 00:21:35;;;;;;;6.60;4.70;;;;;;;;;;5013855;28;20420;-74
2021/08/31 00:24:01;;;;;;;7.00;5.20;;;;;;;;;;4995329;28;20452;-74
2021/08/31 00:26:27;;;;;;;7.57;5.97;;;;;;;;;;4994278;28;20839;-74
2021/08/31 00:28:53;;;;;;;7.27;4.87;;;;;;;;;;5007241;28;20438;-74
2021/08/31 00:31:19;;;;;;;7.73;5.83;;;;;;;;;;5013704;28;20482;-75
2021/08/31 00:33:45;;;;;;;8.80;5.80;;;;;;;;;;5002416;28;20884;-74
2021/08/31 00:36:11;;;;;;;8.17;5.37;;;;;;;;;;4994288;28;20932;-74
2021/08/31 00:38:38;;;;;;;7.57;5.20;;;;;;;;;;5004669;28;20834;-74
2021/08/31 00:41:04;;;;;;;7.90;6.40;;;;;;;;;;5013557;28;20412;-75
2021/08/31 00:43:42;;;;;;;8.53;5.80;;;;;;;;;;5004670;28;20508;-75
2021/08/31 00:46:08;;;;;;;8.87;6.60;;;;;;;;;;4993884;28;20447;-74
2021/08/31 00:48:34;;;;;;;7.80;6.77;;;;;;;;;;4993901;28;20437;-74
2021/08/31 00:51:00;;;;;;;9.43;6.50;;;;;;;;;;4993909;28;20408;-74
2021/08/31 00:53:26;;;;;;;8.37;5.87;;;;;;;;;;4979781;28;20933;-74
2021/08/31 00:55:52;;;;;;;10.03;7.23;;;;;;;;;;4998704;28;20428;-74
2021/08/31 00:58:18;;;;;;;7.03;5.50;;;;;;;;;;5012868;28;20435;-74
2021/08/31 01:00:44;;;;;;;10.40;6.53;;;;;;;;;;5013436;28;20927;-74
2021/08/31 01:03:10;;;;;;;8.70;6.90;;;;;;;;;;4991037;28;20432;-74
2021/08/31 01:05:36;;;;;;;8.53;6.50;;;;;;;;;;4993608;28;20452;-74
2021/08/31 01:08:03;;;;;;;9.60;6.57;;;;;;;;;;4995981;28;20451;-74
2021/08/31 01:10:29;;;;;;;9.93;6.67;;;;;;;;;;4996402;28;20774;-75
2021/08/31 01:12:55;;;;;;;8.27;6.23;;;;;;;;;;4995583;28;20775;-74
2021/08/31 01:15:21;;;;;;;9.70;6.83;;;;;;;;;;4999005;28;21240;-74
2021/08/31 01:17:48;;;;;;;9.70;6.20;;;;;;;;;;4997503;28;20443;-75
2021/08/31 01:20:14;;;;;;;12.50;8.70;;;;;;;;;;5012774;28;20436;-75
2021/08/31 01:22:40;;;;;;;15.10;8.10;;;;;;;;;;5017020;28;20810;-75
2021/08/31 01:25:07;;;;;;;9.40;7.50;;;;;;;;;;5015873;28;20832;-74
2021/08/31 01:27:33;;;;;;;11.77;8.60;;;;;;;;;;5016895;28;20403;-75
2021/08/31 01:30:00;;;;;;;10.10;7.13;;;;;;;;;;5015761;28;20427;-74
2021/08/31 01:32:29;;;;;;;9.10;7.60;;;;;;;;;;5013381;28;21011;-74
2021/08/31 01:34:55;;;;;;;9.63;7.67;;;;;;;;;;5009500;28;20510;-74
2021/08/31 01:37:21;;;;;;;10.90;7.67;;;;;;;;;;5016815;28;20408;-74
2021/08/31 01:39:47;;;;;;;11.53;8.10;;;;;;;;;;5004844;28;20452;-74
2021/08/31 01:42:13;;;;;;;9.70;6.83;;;;;;;;;;4997000;28;20432;-74
2021/08/31 01:44:40;;;;;;;9.90;7.13;;;;;;;;;;4996707;28;20479;-73
2021/08/31 01:47:06;;;;;;;10.70;7.73;;;;;;;;;;4997031;28;20436;-74
2021/08/31 01:49:32;;;;;;;10.73;8.10;;;;;;;;;;5005512;28;20462;-74
2021/08/31 01:51:58;;;;;;;12.03;7.93;;;;;;;;;;5016461;28;20400;-75
2021/08/31 01:54:24;;;;;;;9.80;6.77;;;;;;;;;;5015859;28;20458;-74
2021/08/31 01:56:50;;;;;;;10.20;7.50;;;;;;;;;;5016388;28;20534;-75
2021/08/31 01:59:16;;;;;;;11.23;8.30;;;;;;;;;;5013369;28;20435;-73
2021/08/31 02:01:42;;;;;;;10.23;7.30;;;;;;;;;;4997264;28;20412;-74
2021/08/31 02:04:08;;;;;;;12.07;7.60;;;;;;;;;;4996882;28;20543;-74
2021/08/31 02:06:34;;;;;;;9.40;7.37;;;;;;;;;;4996570;28;20400;-75
2021/08/31 02:09:00;;;;;;;10.87;8.50;;;;;;;;;;4997698;28;20440;-74
2021/08/31 02:11:28;;;;;;;10.60;8.00;;;;;;;;;;5013502;28;20426;-73
2021/08/31 02:13:54;;;;;;;10.73;7.93;;;;;;;;;;5015343;28;20487;-73
2021/08/31 02:16:20;;;;;;;11.90;7.90;;;;;;;;;;5016045;28;20392;-75
2021/08/31 02:18:46;;;;;;;9.90;7.60;;;;;;;;;;5014351;28;20400;-74
2021/08/31 02:21:12;;;;;;;8.37;6.60;;;;;;;;;;5015896;28;20402;-74
2021/08/31 02:23:38;;;;;;;11.83;8.37;;;;;;;;;;5014944;28;20462;-74
2021/08/31 02:26:05;;;;;;;12.80;7.23;;;;;;;;;;5015700;28;20551;-74
2021/08/31 02:28:31;;;;;;;11.57;8.63;;;;;;;;;;5016056;28;20773;-74
2021/08/31 02:30:57;;;;;;;11.03;7.90;;;;;;;;;;4996669;28;20523;-74
2021/08/31 02:33:23;;;;;;;11.43;7.23;;;;;;;;;;4996151;28;20496;-75
2021/08/31 02:35:49;;;;;;;11.03;7.53;;;;;;;;;;4996017;28;20432;-74
2021/08/31 02:38:15;;;;;;;11.10;8.50;;;;;;;;;;4996264;28;21017;-74
2021/08/31 02:40:41;;;;;;;9.90;7.63;;;;;;;;;;4996170;28;20465;-74
2021/08/31 02:43:07;;;;;;;11.47;8.30;;;;;;;;;;4995634;28;20759;-73
2021/08/31 02:45:33;;;;;;;11.30;7.33;;;;;;;;;;5011429;28;20847;-74
2021/08/31 02:47:59;;;;;;;10.07;7.57;;;;;;;;;;5004433;28;20525;-74
2021/08/31 02:50:25;;;;;;;11.07;8.13;;;;;;;;;;5007898;28;20847;-74
2021/08/31 02:52:51;;;;;;;12.50;8.23;;;;;;;;;;5015507;28;20415;-74
2021/08/31 02:55:17;;;;;;;9.20;6.80;;;;;;;;;;5014081;28;20487;-74
2021/08/31 02:57:43;;;;;;;11.17;6.97;;;;;;;;;;5015208;28;20799;-74
2021/08/31 03:00:17;;;;;;;11.17;7.67;;;;;;;;;;5008256;28;20436;-74
2021/08/31 03:02:43;;;;;;;9.53;6.17;;;;;;;;;;4996029;28;20940;-74
2021/08/31 03:05:09;;;;;;;9.37;6.93;;;;;;;;;;5001055;28;20471;-74
2021/08/31 03:07:35;;;;;;;12.60;6.50;;;;;;;;;;5014975;28;20931;-75
2021/08/31 03:10:01;;;;;;;14.30;7.00;;;;;;;;;;5013913;28;20431;-74
2021/08/31 03:12:27;;;;;;;11.63;8.13;;;;;;;;;;5014947;28;20396;-74
2021/08/31 03:14:53;;;;;;;10.07;7.70;;;;;;;;;;5010976;28;20956;-74
2021/08/31 03:17:19;;;;;;;10.80;7.40;;;;;;;;;;4995294;28;20400;-74
2021/08/31 03:19:45;;;;;;;9.70;7.03;;;;;;;;;;4995900;28;21007;-74
2021/08/31 03:22:11;;;;;;;11.10;7.03;;;;;;;;;;4995175;28;20773;-75
2021/08/31 03:24:37;;;;;;;8.57;6.27;;;;;;;;;;4995846;28;20489;-74
2021/08/31 03:27:04;;;;;;;9.90;7.20;;;;;;;;;;5013988;28;20431;-74
2021/08/31 03:29:30;;;;;;;11.10;7.23;;;;;;;;;;5014029;28;20408;-74
2021/08/31 03:31:56;;;;;;;9.70;7.00;;;;;;;;;;4981740;28;20436;-74
2021/08/31 03:34:22;;;;;;;10.47;7.37;;;;;;;;;;4994807;28;20518;-74
2021/08/31 03:36:50;;;;;;;9.13;6.60;;;;;;;;;;5002371;28;20427;-74
2021/08/31 03:39:16;;;;;;;9.87;5.83;;;;;;;;;;5014087;28;20518;-74
2021/08/31 03:41:42;;;;;;;8.70;6.50;;;;;;;;;;5013401;28;20507;-74
2021/08/31 03:44:08;;;;;;;11.47;7.00;;;;;;;;;;5014186;28;20443;-75
2021/08/31 03:46:34;;;;;;;12.33;7.20;;;;;;;;;;5013880;28;20431;-74
2021/08/31 03:49:01;;;;;;;9.13;6.83;;;;;;;;;;5014296;28;20396;-75
2021/08/31 03:51:27;;;;;;;8.73;7.30;;;;;;;;;;4995959;28;20514;-74
2021/08/31 03:53:53;;;;;;;10.30;7.57;;;;;;;;;;5014148;28;20824;-74
2021/08/31 03:56:19;;;;;;;10.50;8.40;;;;;;;;;;5013278;28;20463;-74
2021/08/31 03:58:45;;;;;;;11.30;7.90;;;;;;;;;;5014203;28;20408;-74
2021/08/31 04:01:11;;;;;;;10.23;7.53;;;;;;;;;;5010298;28;20943;-74
2021/08/31 04:03:37;;;;;;;17.57;7.63;;;;;;;;;;5013969;28;20541;-74
2021/08/31 04:06:03;;;;;;;10.13;7.40;;;;;;;;;;4995497;28;20481;-74
2021/08/31 04:08:29;;;;;;;12.13;8.53;;;;;;;;;;5013998;28;20424;-74
2021/08/31 04:10:55;;;;;;;9.90;7.30;;;;;;;;;;5004065;28;20433;-74
2021/08/31 04:13:21;;;;;;;11.07;7.60;;;;;;;;;;4994198;28;20412;-74
2021/08/31 04:15:47;;;;;;;9.57;7.17;;;;;;;;;;5002108;28;20435;-74
2021/08/31 04:18:13;;;;;;;10.00;7.63;;;;;;;;;;5014097;28;20421;-75
2021/08/31 04:20:39;;;;;;;10.60;8.20;;;;;;;;;;5006071;28;20556;-74
2021/08/31 04:23:06;;;;;;;9.40;6.80;;;;;;;;;;4994165;28;20409;-75
2021/08/31 04:25:32;;;;;;;8.23;6.30;;;;;;;;;;5005083;28;20959;-74
2021/08/31 04:27:58;;;;;;;10.73;7.40;;;;;;;;;;5013930;28;20418;-74
2021/08/31 04:30:24;;;;;;;8.17;6.60;;;;;;;;;;5012888;28;20506;-74
2021/08/31 04:32:50;;;;;;;7.33;6.50;;;;;;;;;;5011288;28;20420;-74
2021/08/31 04:35:16;;;;;;;9.90;7.67;;;;;;;;;;4994219;28;20457;-74
2021/08/31 04:37:42;;;;;;;12.43;7.73;;;;;;;;;;4994061;28;20511;-75
2021/08/31 04:40:08;;;;;;;10.10;7.47;;;;;;;;;;4995756;28;20520;-74
2021/08/31 04:42:34;;;;;;;11.30;7.07;;;;;;;;;;5013445;28;20404;-75
2021/08/31 04:45:00;;;;;;;9.97;7.17;;;;;;;;;;5011993;28;20550;-74
2021/08/31 04:47:26;;;;;;;9.53;7.33;;;;;;;;;;4993880;28;20435;-74
2021/08/31 04:49:52;;;;;;;10.13;8.23;;;;;;;;;;4994034;28;20767;-75
2021/08/31 04:52:18;;;;;;;10.70;7.77;;;;;;;;;;5013022;28;20912;-75
2021/08/31 04:54:44;;;;;;;9.83;7.80;;;;;;;;;;5013332;28;20451;-75
2021/08/31 04:57:10;;;;;;;16.23;8.40;;;;;;;;;;4994649;28;20480;-74
2021/08/31 04:59:36;;;;;;;10.73;8.07;;;;;;;;;;4993754;28;20419;-75
2021/08/31 05:02:02;;;;;;;11.40;8.13;;;;;;;;;;5009760;28;20435;-74
2021/08/31 05:04:29;;;;;;;11.70;8.43;;;;;;;;;;5013371;28;20467;-74
2021/08/31 05:06:55;;;;;;;10.10;6.80;;;;;;;;;;5012168;28;20427;-74
2021/08/31 05:09:21;;;;;;;9.30;7.10;;;;;;;;;;5013272;28;20494;-75
2021/08/31 05:11:48;;;;;;;9.53;7.27;;;;;;;;;;5012407;28;20431;-74
2021/08/31 05:14:14;;;;;;;8.93;6.13;;;;;;;;;;5013131;28;20426;-74
2021/08/31 05:16:40;;;;;;;9.73;7.10;;;;;;;;;;5012245;28;20430;-74
2021/08/31 05:19:06;;;;;;;10.70;6.77;;;;;;;;;;4991585;28;20483;-74
2021/08/31 05:21:32;;;;;;;14.10;8.10;;;;;;;;;;5003961;28;20428;-74
2021/08/31 05:23:59;;;;;;;9.70;6.77;;;;;;;;;;5013123;28;20510;-74
2021/08/31 05:26:25;;;;;;;10.07;7.23;;;;;;;;;;5011809;28;20431;-74
2021/08/31 05:28:51;;;;;;;8.63;6.87;;;;;;;;;;5013255;28;20407;-75
2021/08/31 05:31:17;;;;;;;9.90;6.97;;;;;;;;;;5012294;28;20462;-74
2021/08/31 05:33:43;;;;;;;11.20;8.20;;;;;;;;;;5012953;28;20415;-74
2021/08/31 05:36:09;;;;;;;8.13;7.03;;;;;;;;;;5012137;28;20412;-74
2021/08/31 05:38:35;;;;;;;9.83;7.40;;;;;;;;;;5012146;28;20415;-74
2021/08/31 05:41:02;;;;;;;9.53;6.60;;;;;;;;;;5006612;28;20992;-74
2021/08/31 05:43:28;;;;;;;8.83;6.83;;;;;;;;;;4993254;28;20429;-75
2021/08/31 05:45:54;;;;;;;9.77;6.80;;;;;;;;;;4998219;28;20464;-75
2021/08/31 05:48:21;;;;;;;9.57;7.37;;;;;;;;;;5013298;28;20766;-75
2021/08/31 05:50:47;;;;;;;11.70;7.63;;;;;;;;;;5011959;28;20427;-75
2021/08/31 05:53:13;;;;;;;12.80;7.30;;;;;;;;;;5013075;28;20395;-75
2021/08/31 05:55:39;;;;;;;8.83;6.70;;;;;;;;;;5014816;28;20411;-75
2021/08/31 05:58:05;;;;;;;8.77;7.20;;;;;;;;;;5016624;28;20408;-75
2021/08/31 06:00:31;;;;;;;17.17;7.40;;;;;;;;;;4996958;28;20956;-75
2021/08/31 06:02:57;;;;;;;9.03;7.27;;;;;;;;;;4996746;28;20443;-75
2021/08/31 06:05:23;;;;;;;10.13;7.97;;;;;;;;;;4996660;28;20539;-75
2021/08/31 06:07:49;;;;;;;9.77;7.63;;;;;;;;;;5013305;28;20443;-75
2021/08/31 06:10:17;;;;;;;10.20;8.50;;;;;;;;;;5016217;28;20495;-75
2021/08/31 06:12:43;;;;;;;11.40;8.53;;;;;;;;;;5015288;28;20790;-75
2021/08/31 06:15:09;;;;;;;11.57;8.37;;;;;;;;;;5016046;28;20885;-75
2021/08/31 06:17:37;;;;;;;11.57;7.80;;;;;;;;;;4999250;28;20444;-75
2021/08/31 06:20:04;;;;;;;11.43;8.03;;;;;;;;;;4996578;28;20745;-74
2021/08/31 06:22:30;;;;;;;11.37;7.43;;;;;;;;;;5007868;28;20455;-75
2021/08/31 06:24:56;;;;;;;11.60;8.63;;;;;;;;;;5015265;28;20503;-75
2021/08/31 06:27:22;;;;;;;13.60;9.13;;;;;;;;;;5014879;28;20470;-75
2021/08/31 06:29:48;;;;;;;8.57;7.37;;;;;;;;;;5015679;28;20505;-75
2021/08/31 06:32:14;;;;;;;11.50;7.87;;;;;;;;;;5015200;28;20808;-75
2021/08/31 06:34:41;;;;;;;9.50;7.50;;;;;;;;;;5015757;28;20921;-75
2021/08/31 06:37:07;;;;;;;9.10;7.00;;;;;;;;;;5014706;28;20821;-75
2021/08/31 06:39:33;;;;;;;9.50;7.70;;;;;;;;;;5015679;28;20411;-74
2021/08/31 06:41:59;;;;;;;12.47;8.10;;;;;;;;;;5014665;28;20435;-75
2021/08/31 06:44:25;;;;;;;9.63;7.90;;;;;;;;;;5013791;28;20487;-75
2021/08/31 06:46:51;;;;;;;11.90;7.73;;;;;;;;;;5014096;28;20494;-75
2021/08/31 06:49:17;;;;;;;16.33;9.03;;;;;;;;;;5015779;28;20453;-75
2021/08/31 06:51:43;;;;;;;9.70;7.67;;;;;;;;;;5013518;28;20459;-75
2021/08/31 06:54:09;;;;;;;10.33;7.20;;;;;;;;;;5011395;28;20806;-75
2021/08/31 06:56:35;;;;;;;12.50;8.30;;;;;;;;;;5013929;28;20878;-75
2021/08/31 06:59:01;;;;;;;8.63;7.10;;;;;;;;;;5016749;28;20821;-75
2021/08/31 07:01:28;;;;;;;12.87;7.73;;;;;;;;;;5023113;28;20786;-76
2021/08/31 07:03:54;;;;;;;10.90;8.23;;;;;;;;;;5015711;28;20439;-76
2021/08/31 07:06:20;;;;;;;9.80;7.83;;;;;;;;;;5017165;28;20455;-75
2021/08/31 07:08:46;;;;;;;13.67;7.90;;;;;;;;;;5013857;28;20454;-75
2021/08/31 07:11:12;;;;;;;10.07;7.10;;;;;;;;;;5013923;28;20438;-75
2021/08/31 07:13:39;;;;;;;10.57;7.77;;;;;;;;;;5015026;28;20839;-75
2021/08/31 07:16:05;;;;;;;11.63;7.93;;;;;;;;;;5013905;28;20431;-75
2021/08/31 07:18:31;;;;;;;17.07;7.40;;;;;;;;;;5014673;28;20411;-75
2021/08/31 07:20:57;;;;;;;12.63;7.60;;;;;;;;;;5013758;28;20439;-75
2021/08/31 07:23:23;;;;;;;10.07;6.67;;;;;;;;;;5014511;28;20420;-75
2021/08/31 07:25:49;;;;;;;10.20;7.30;;;;;;;;;;5013264;28;20469;-76
2021/08/31 07:28:16;;;;;;;10.40;7.60;;;;;;;;;;5014131;28;20455;-75
2021/08/31 07:30:42;;;;;;;9.53;6.97;;;;;;;;;;5014158;28;21021;-75
2021/08/31 07:33:09;;;;;;;11.50;7.43;;;;;;;;;;5014269;28;20416;-75
2021/08/31 07:35:35;;;;;;;10.17;8.07;;;;;;;;;;5013238;28;20419;-76
2021/08/31 07:38:02;;;;;;;9.60;7.47;;;;;;;;;;5009067;28;20526;-75
2021/08/31 07:40:28;;;;;;;12.93;8.33;;;;;;;;;;5011206;28;20519;-75
2021/08/31 07:42:54;;;;;;;13.70;9.80;;;;;;;;;;5005012;28;20466;-75
2021/08/31 07:45:21;;;;;;;14.93;9.40;;;;;;;;;;5012022;28;20506;-75
2021/08/31 07:47:47;;;;;;;10.03;8.10;;;;;;;;;;5012026;28;20424;-75
2021/08/31 07:50:14;;;;;;;9.67;7.60;;;;;;;;;;5016313;28;20427;-75
2021/08/31 07:52:40;;;;;;;11.80;8.00;;;;;;;;;;5009563;28;20435;-75
2021/08/31 07:55:07;;;;;;;12.33;8.20;;;;;;;;;;4976091;28;20446;-75
2021/08/31 07:57:34;;;;;;;12.20;7.90;;;;;;;;;;5012418;28;20463;-75
2021/08/31 08:00:00;;;;;;;13.33;9.20;;;;;;;;;;5013079;28;20508;-75
2021/08/31 08:02:26;;;;;;;10.53;8.57;;;;;;;;;;5010639;28;20467;-75
2021/08/31 08:04:59;;;;;;;13.37;7.83;;;;;;;;;;5008931;28;20986;-75
2021/08/31 08:07:28;;;;;;;10.00;8.40;;;;;;;;;;5010342;28;20431;-75
2021/08/31 08:09:54;;;;;;;13.70;7.93;;;;;;;;;;5011220;28;20456;-78
2021/08/31 08:12:21;;;;;;;12.30;8.00;;;;;;;;;;5010308;28;20434;-73
2021/08/31 08:14:49;;;;;;;10.33;8.03;;;;;;;;;;5011458;28;20447;-75
2021/08/31 08:17:16;;;;;;;12.83;8.23;;;;;;;;;;5006252;28;20982;-76
2021/08/31 08:19:42;;;;;;;12.07;8.50;;;;;;;;;;5009723;28;20482;-73
2021/08/31 08:22:08;;;;;;;11.33;8.37;;;;;;;;;;5008604;28;20443;-72
2021/08/31 08:24:34;;;;;;;14.73;8.50;;;;;;;;;;5014226;28;20455;-73
2021/08/31 08:27:00;;;;;;;13.70;10.17;;;;;;;;;;5012597;28;20871;-73
2021/08/31 08:29:27;;;;;;;10.10;7.97;;;;;;;;;;5012823;28;20507;-73
2021/08/31 08:31:55;;;;;;;13.40;7.83;;;;;;;;;;5010313;28;20506;-72
2021/08/31 08:34:21;;;;;;;9.50;8.50;;;;;;;;;;5012575;28;20932;-73
2021/08/31 08:36:47;;;;;;;11.23;8.30;;;;;;;;;;5010909;28;20542;-72
2021/08/31 08:39:13;;;;;;;14.07;7.37;;;;;;;;;;5013027;28;20980;-73
2021/08/31 08:41:39;;;;;;;11.67;7.73;;;;;;;;;;5011196;28;20441;-72
2021/08/31 08:44:05;;;;;;;11.83;6.90;;;;;;;;;;5012004;28;20570;-75
2021/08/31 08:46:31;;;;;;;7.80;6.20;;;;;;;;;;5005881;28;21311;-73
2021/08/31 08:48:58;;;;;;;12.03;8.13;;;;;;;;;;5012688;28;20458;-72
2021/08/31 08:51:24;;;;;;;17.40;7.73;;;;;;;;;;5013316;28;20418;-77
2021/08/31 08:53:50;;;;;;;10.10;6.83;;;;;;;;;;5007383;28;20452;-76
2021/08/31 08:56:17;;;;;;;8.93;6.10;;;;;;;;;;5007066;28;20431;-76
2021/08/31 08:58:43;;;;;;;13.10;7.50;;;;;;;;;;5011324;28;20438;-77
2021/08/31 09:01:13;;;;;;;9.90;7.20;;;;;;;;;;5011542;28;20522;-76
2021/08/31 09:03:41;;;;;;;9.87;7.20;;;;;;;;;;5009982;28;20455;-71
2021/08/31 09:06:12;;;;;;;10.03;7.30;;;;;;;;;;5011705;28;20463;-74
2021/08/31 09:08:40;;;;;;;9.87;6.53;;;;;;;;;;5011699;28;20432;-76
2021/08/31 09:11:26;;;;;;;9.93;7.10;;;;;;;;;;5004121;28;20439;-74
2021/08/31 09:13:53;;;;;;;8.43;6.33;;;;;;;;;;5010022;28;20447;-78
2021/08/31 09:16:23;;;;;;;8.90;7.20;;;;;;;;;;5011716;28;20435;-76
2021/08/31 09:18:49;;;;;;;9.30;7.17;;;;;;;;;;5009918;28;20438;-75
2021/08/31 09:21:20;;;;;;;8.87;7.00;;;;;;;;;;4992831;28;20809;-75
2021/08/31 09:23:49;;;;;;;10.27;6.13;;;;;;;;;;5002890;28;20545;-75
2021/08/31 09:26:18;;;;;;;9.07;6.20;;;;;;;;;;5006177;28;20456;-76
2021/08/31 09:28:45;;;;;;;8.80;6.20;;;;;;;;;;5010367;28;20515;-73
2021/08/31 09:31:19;;;;;;;8.27;6.80;;;;;;;;;;4998620;28;20518;-73
2021/08/31 09:33:46;;;;;;;7.90;5.70;;;;;;;;;;5015725;28;20471;-76
2021/08/31 09:36:14;;;;;;;7.57;6.63;;;;;;;;;;5015764;28;20423;-78
2021/08/31 09:38:52;;;;;;;7.20;5.57;;;;;;;;;;5010706;28;20463;-77
2021/08/31 09:41:33;;;;;;;6.33;4.97;;;;;;;;;;5015290;28;20458;-76
2021/08/31 09:44:01;;;;;;;7.93;5.87;;;;;;;;;;5015242;28;20870;-76
2021/08/31 09:46:46;;;;;;;8.87;5.90;;;;;;;;;;4997342;28;21688;-76
2021/08/31 09:49:21;;;;;;;6.83;5.47;;;;;;;;;;5015651;28;20431;-77
2021/08/31 09:52:02;;;;;;;5.70;5.10;;;;;;;;;;5017427;28;20411;-76
2021/08/31 09:54:30;;;;;;;12.33;5.47;;;;;;;;;;5011710;28;20448;-75
2021/08/31 09:56:55;;;;;;;6.17;5.60;;;;;;;;;;5008308;28;20411;-74
2021/08/31 09:59:23;;;;;;;8.60;6.17;;;;;;;;;;5013757;28;20767;-73
2021/08/31 10:01:52;;;;;;;6.60;4.77;;;;;;;;;;5015616;28;20917;-72
2021/08/31 10:04:19;;;;;;;8.87;5.57;;;;;;;;;;5015080;28;20443;-74
2021/08/31 10:06:45;;;;;;;6.17;5.20;;;;;;;;;;5015909;28;20415;-74
2021/08/31 10:09:11;;;;;;;7.10;4.50;;;;;;;;;;5014928;28;20422;-74
2021/08/31 10:11:38;;;;;;;6.47;4.43;;;;;;;;;;5015794;28;20912;-74
2021/08/31 10:14:05;;;;;;;5.30;4.37;;;;;;;;;;5010702;28;20444;-74
2021/08/31 10:16:32;;;;;;;4.17;3.43;;;;;;;;;;5015639;28;20455;-74
2021/08/31 10:18:58;;;;;;;6.67;4.30;;;;;;;;;;5014889;28;20539;-74
2021/08/31 10:21:24;;;;;;;5.53;3.50;;;;;;;;;;5017266;28;20948;-76
2021/08/31 10:23:50;;;;;;;4.87;3.73;;;;;;;;;;5013227;28;20955;-74
2021/08/31 10:26:30;;;;;;;4.20;3.80;;;;;;;;;;5009912;28;20543;-78
2021/08/31 10:29:12;;;;;;;5.30;3.27;;;;;;;;;;5013265;28;20431;-76
2021/08/31 10:31:38;;;;;;;4.57;2.97;;;;;;;;;;4997930;28;20431;-76
2021/08/31 10:34:23;;;;;;;5.93;4.03;;;;;;;;;;5014306;28;20439;-76
2021/08/31 10:36:59;;;;;;;6.20;3.97;;;;;;;;;;5014848;28;20490;-76
2021/08/31 10:39:44;;;;;;;4.10;3.00;;;;;;;;;;5013917;28;20470;-76
2021/08/31 10:42:10;;;;;;;3.63;3.17;;;;;;;;;;5014060;28;20412;-76
2021/08/31 10:44:40;;;;;;;3.50;2.97;;;;;;;;;;5002929;28;20463;-77
2021/08/31 10:47:10;;;;;;;4.43;3.30;;;;;;;;;;5009200;28;20430;-77
2021/08/31 10:49:55;;;;;;;3.27;2.43;;;;;;;;;;5014956;28;20762;-76
2021/08/31 10:52:42;;;;;;;4.73;3.50;;;;;;;;;;5009337;28;20919;-76
2021/08/31 10:55:24;;;;;;;5.53;3.93;;;;;;;;;;5013925;28;20914;-76
2021/08/31 10:57:50;;;;;;;4.20;3.57;;;;;;;;;;5011817;28;21065;-77
2021/08/31 11:00:16;;;;;;;3.43;2.77;;;;;;;;;;5010898;28;20427;-77
2021/08/31 11:02:48;;;;;;;4.57;3.10;;;;;;;;;;5014915;28;20434;-77
2021/08/31 11:05:27;;;;;;;3.40;2.80;;;;;;;;;;5013766;28;20967;-76
2021/08/31 11:07:56;;;;;;;3.67;2.73;;;;;;;;;;5013716;28;20408;-78
2021/08/31 11:10:23;;;;;;;4.57;3.07;;;;;;;;;;5006791;28;20416;-77
2021/08/31 11:12:50;;;;;;;3.90;3.00;;;;;;;;;;5012865;28;20419;-77
2021/08/31 11:15:20;;;;;;;4.30;3.10;;;;;;;;;;4995680;28;20498;-77
2021/08/31 11:17:47;;;;;;;4.10;3.37;;;;;;;;;;5005847;28;20520;-77
2021/08/31 11:20:18;;;;;;;5.33;3.00;;;;;;;;;;5013195;28;20427;-77
2021/08/31 11:22:49;;;;;;;5.17;3.90;;;;;;;;;;5010920;28;20427;-76
2021/08/31 11:25:15;;;;;;;4.70;3.40;;;;;;;;;;5013082;28;20486;-77
2021/08/31 11:27:56;;;;;;;3.83;3.27;;;;;;;;;;5012260;28;20412;-77
2021/08/31 11:30:22;;;;;;;5.10;3.13;;;;;;;;;;5013884;28;20407;-77
2021/08/31 11:32:48;;;;;;;4.53;3.43;;;;;;;;;;5014361;28;20422;-77
2021/08/31 11:35:14;;;;;;;4.37;2.80;;;;;;;;;;5013556;28;20501;-77
2021/08/31 11:37:51;;;;;;;4.50;3.10;;;;;;;;;;5013646;28;20462;-77
2021/08/31 11:40:25;;;;;;;4.83;3.80;;;;;;;;;;4995056;28;20962;-77
2021/08/31 11:42:52;;;;;;;4.17;3.60;;;;;;;;;;5016325;28;20483;-77
2021/08/31 11:45:19;;;;;;;4.27;3.33;;;;;;;;;;5015905;28;20482;-76
2021/08/31 11:47:45;;;;;;;4.33;3.30;;;;;;;;;;5015909;28;20408;-76
2021/08/31 11:50:13;;;;;;;7.80;3.57;;;;;;;;;;5012360;28;20474;-76
2021/08/31 11:52:39;;;;;;;7.07;3.80;;;;;;;;;;5009078;28;20420;-76
2021/08/31 11:55:05;;;;;;;3.90;3.10;;;;;;;;;;5009058;28;20462;-76
2021/08/31 11:57:32;;;;;;;4.63;3.00;;;;;;;;;;5013316;28;20486;-76
2021/08/31 11:59:58;;;;;;;6.40;3.43;;;;;;;;;;4994910;28;20448;-76
2021/08/31 12:02:28;;;;;;;4.30;2.80;;;;;;;;;;5013422;28;20443;-76
2021/08/31 12:04:57;;;;;;;4.27;2.97;;;;;;;;;;5010035;28;20475;-76
2021/08/31 12:07:44;;;;;;;4.57;3.70;;;;;;;;;;5013055;28;20470;-76
2021/08/31 12:10:19;;;;;;;4.87;3.43;;;;;;;;;;5010085;28;20798;-76
2021/08/31 12:12:45;;;;;;;5.10;3.20;;;;;;;;;;5012978;28;20835;-76
2021/08/31 12:15:11;;;;;;;6.10;4.70;;;;;;;;;;5019248;28;20442;-76
2021/08/31 12:17:42;;;;;;;4.80;3.30;;;;;;;;;;5024325;28;20466;-76
2021/08/31 12:20:25;;;;;;;4.93;3.33;;;;;;;;;;4992478;28;20450;-76
2021/08/31 12:22:52;;;;;;;6.40;3.40;;;;;;;;;;4995173;28;21022;-76
2021/08/31 12:25:19;;;;;;;5.50;3.50;;;;;;;;;;5010708;28;20459;-76
2021/08/31 12:27:49;;;;;;;4.10;3.10;;;;;;;;;;5010769;28;20960;-76
2021/08/31 12:30:19;;;;;;;6.70;3.50;;;;;;;;;;5012472;28;20431;-76
2021/08/31 12:32:55;;;;;;;5.83;3.77;;;;;;;;;;5020477;28;20420;-76
2021/08/31 12:35:42;;;;;;;3.90;3.20;;;;;;;;;;5011179;28;20451;-76
2021/08/31 12:38:12;;;;;;;4.40;3.20;;;;;;;;;;5012832;28;20477;-76
2021/08/31 12:40:58;;;;;;;4.90;3.40;;;;;;;;;;5006063;28;20522;-76
2021/08/31 12:43:28;;;;;;;6.40;4.13;;;;;;;;;;5012924;28;20420;-76
2021/08/31 12:45:56;;;;;;;7.50;4.00;;;;;;;;;;5015016;28;20474;-76
2021/08/31 12:48:34;;;;;;;5.63;3.57;;;;;;;;;;5012546;28;20439;-76
2021/08/31 12:51:05;;;;;;;5.33;3.83;;;;;;;;;;5012707;28;20514;-75
2021/08/31 12:53:38;;;;;;;5.37;3.53;;;;;;;;;;5013040;28;20439;-76
2021/08/31 12:56:05;;;;;;;5.53;3.80;;;;;;;;;;5010807;28;20443;-76
2021/08/31 12:58:35;;;;;;;5.50;4.03;;;;;;;;;;5008305;28;20481;-76
2021/08/31 13:01:09;;;;;;;4.17;3.30;;;;;;;;;;5011723;28;20440;-76
2021/08/31 13:03:36;;;;;;;4.80;3.70;;;;;;;;;;5013621;28;20446;-76
2021/08/31 13:06:02;;;;;;;5.87;3.63;;;;;;;;;;5015520;28;20469;-76
2021/08/31 13:08:28;;;;;;;4.50;3.50;;;;;;;;;;5016066;28;20450;-76
2021/08/31 13:10:54;;;;;;;5.93;4.10;;;;;;;;;;5012638;28;20427;-76
2021/08/31 13:13:30;;;;;;;4.87;3.50;;;;;;;;;;5014829;28;20459;-76
2021/08/31 13:15:56;;;;;;;5.00;3.60;;;;;;;;;;5010730;28;20441;-76
2021/08/31 13:18:23;;;;;;;6.27;3.90;;;;;;;;;;5015510;28;20485;-75
2021/08/31 13:20:49;;;;;;;3.83;2.90;;;;;;;;;;5015757;28;20514;-75
2021/08/31 13:23:15;;;;;;;5.13;3.93;;;;;;;;;;5014894;28;20426;-76
2021/08/31 13:25:41;;;;;;;5.80;3.87;;;;;;;;;;5014021;28;20827;-76
2021/08/31 13:28:08;;;;;;;5.63;4.37;;;;;;;;;;5015937;28;20473;-75
2021/08/31 13:30:34;;;;;;;7.83;4.10;;;;;;;;;;5011856;28;20428;-75
2021/08/31 13:33:00;;;;;;;4.90;3.80;;;;;;;;;;5009306;28;20529;-76
2021/08/31 13:35:26;;;;;;;6.30;4.10;;;;;;;;;;5015087;28;20495;-76
2021/08/31 13:37:52;;;;;;;5.10;3.50;;;;;;;;;;5014912;28;20932;-76
2021/08/31 13:40:18;;;;;;;4.70;3.23;;;;;;;;;;5009066;28;20435;-76
2021/08/31 13:42:44;;;;;;;4.57;3.30;;;;;;;;;;5015228;28;20485;-76
2021/08/31 13:45:10;;;;;;;5.43;4.10;;;;;;;;;;5014459;28;20470;-76
2021/08/31 13:47:36;;;;;;;6.40;3.50;;;;;;;;;;5015599;28;20442;-77
2021/08/31 13:50:03;;;;;;;5.33;3.23;;;;;;;;;;5014586;28;20473;-77
2021/08/31 13:52:29;;;;;;;3.43;3.10;;;;;;;;;;5004793;28;20760;-77
2021/08/31 13:54:55;;;;;;;4.07;3.00;;;;;;;;;;5014345;28;20459;-77
2021/08/31 13:57:22;;;;;;;4.53;3.47;;;;;;;;;;5015662;28;20934;-77
2021/08/31 13:59:48;;;;;;;3.30;2.53;;;;;;;;;;5014097;28;20527;-77
2021/08/31 14:02:14;;;;;;;4.20;3.33;;;;;;;;;;5015336;28;20499;-77
2021/08/31 14:04:40;;;;;;;3.77;2.60;;;;;;;;;;5007753;28;20480;-77
2021/08/31 14:07:06;;;;;;;5.20;3.37;;;;;;;;;;5009666;28;20813;-77
2021/08/31 14:09:32;;;;;;;5.43;3.07;;;;;;;;;;5015736;28;20459;-77
2021/08/31 14:11:58;;;;;;;5.50;3.10;;;;;;;;;;5010683;28;20451;-77
2021/08/31 14:14:24;;;;;;;3.80;2.80;;;;;;;;;;5009639;28;20932;-77
2021/08/31 14:16:50;;;;;;;5.40;2.70;;;;;;;;;;5006473;28;20436;-78
2021/08/31 14:19:16;;;;;;;3.77;3.33;;;;;;;;;;5015199;28;20423;-77
2021/08/31 14:21:42;;;;;;;5.13;3.50;;;;;;;;;;5010356;28;20931;-78
2021/08/31 14:24:08;;;;;;;3.63;2.83;;;;;;;;;;4997369;28;20446;-77
2021/08/31 14:26:34;;;;;;;5.57;3.60;;;;;;;;;;5011929;28;20474;-78
2021/08/31 14:29:00;;;;;;;5.53;3.43;;;;;;;;;;5014049;28;20423;-78
2021/08/31 14:31:26;;;;;;;4.97;3.77;;;;;;;;;;5010954;28;20526;-77
2021/08/31 14:33:52;;;;;;;4.70;3.30;;;;;;;;;;5014157;28;20516;-79
2021/08/31 14:36:18;;;;;;;7.20;3.50;;;;;;;;;;5017795;28;20434;-77
2021/08/31 14:38:44;;;;;;;4.73;3.30;;;;;;;;;;5013473;28;20924;-77
2021/08/31 14:41:12;;;;;;;4.17;3.57;;;;;;;;;;5013985;28;20482;-77